Danbury, New Hampshire
Current Conditions -  °F | °C
As of 4:35 AM on Sunday 26 Oct 2014 (Local Time) from K1P1 Reporting Station
Moderate Fog Moderate Fog  
Wind Chill:   Ceiling: 500
Heat Index:   Visibility: 0.5mi
Dew Point:   Wind: 0mph
Humidity: 100%   Direction: NA
Pressure: 29.4"   Gusts: NA
Location:  43.53°N, 71.86°W
Report Text: K1P1 260835Z AUTO 00000KT 1/2SM FG VV005 03/03 A2940 RMK AO2 T00290029
Loading
Personal Weather Stations






























Interactive Weather Map
Tropical Storm Tracking
New forecast layout! Learn more

10-Day Weather Forecast

Advertisements
Track Severe Weather on mobile